createdAt,value
2022-10-28T00:00:44.933Z,17
2022-10-28T00:02:46.790Z,17.4
2022-10-28T00:04:48.529Z,17.3
2022-10-28T00:06:50.312Z,17.2
2022-10-28T00:08:52.119Z,22.9
2022-10-28T00:10:53.915Z,18.4
2022-10-28T00:12:55.785Z,23.1
2022-10-28T00:15:00.991Z,17.1
2022-10-28T00:17:02.812Z,19.4
2022-10-28T00:19:04.614Z,18.6
2022-10-28T00:21:06.433Z,18.4
2022-10-28T00:23:08.219Z,19.3
2022-10-28T00:25:10.047Z,20.3
2022-10-28T00:29:17.151Z,20.2
2022-10-28T00:31:18.939Z,21.1
2022-10-28T00:35:22.518Z,19.8
2022-10-28T00:37:24.341Z,20.3
2022-10-28T00:39:26.133Z,19.8
2022-10-28T00:45:36.645Z,22.6
2022-10-28T00:47:38.449Z,22.8
2022-10-28T00:50:01.835Z,24.3
2022-10-28T00:52:03.627Z,23.3
2022-10-28T00:54:05.418Z,25.1
2022-10-28T00:56:10.725Z,27.1
2022-10-28T00:58:12.528Z,24.7
2022-10-28T01:00:14.313Z,25.3
2022-10-28T01:02:16.238Z,25.7
2022-10-28T01:04:17.880Z,26.4
2022-10-28T01:06:19.672Z,27.1
2022-10-28T01:10:26.723Z,29.3
2022-10-28T01:12:28.520Z,28.2
2022-10-28T01:14:30.329Z,28.8
2022-10-28T01:16:32.131Z,29.1
2022-10-28T01:18:33.924Z,29.3
2022-10-28T01:20:39.659Z,28.6
2022-10-28T01:22:37.532Z,29.5
2022-10-28T01:24:42.842Z,27.6
2022-10-28T01:26:44.634Z,31.1
2022-10-28T01:28:46.435Z,29.4
2022-10-28T01:30:48.211Z,30.8
2022-10-28T01:32:50.194Z,28.7
2022-10-28T01:34:51.842Z,31.2
2022-10-28T01:36:53.623Z,30.7
2022-10-28T01:38:58.953Z,31.6
2022-10-28T01:41:00.742Z,31.7
2022-10-28T01:43:02.535Z,31.3
2022-10-28T01:44:05.184Z,32.9
2022-10-28T01:46:07.006Z,32.1
2022-10-28T01:48:08.791Z,31.7
2022-10-28T01:50:10.597Z,34
2022-10-28T01:52:15.855Z,38.3
2022-10-28T01:54:17.654Z,38
2022-10-28T01:56:19.435Z,36.8
2022-10-28T01:58:21.205Z,37.6
2022-10-28T02:00:22.985Z,36.7
2022-10-28T02:02:24.770Z,36.4
2022-10-28T02:04:26.585Z,38.5
2022-10-28T02:06:31.800Z,39.5
2022-10-28T02:08:33.585Z,39.8
2022-10-28T02:10:35.390Z,39.4
2022-10-28T02:12:37.150Z,41.9
2022-10-28T02:14:38.943Z,39.7
2022-10-28T02:20:47.772Z,42.1
2022-10-28T02:22:49.561Z,41.7
2022-10-28T02:24:51.348Z,42.7
2022-10-28T02:26:53.119Z,43.2
2022-10-28T02:28:54.880Z,41.2
2022-10-28T02:30:56.692Z,43.3
2022-10-28T02:32:58.485Z,42.4
2022-10-28T02:35:03.731Z,47.4
2022-10-28T02:37:05.550Z,44.6
2022-10-28T02:39:07.340Z,45.6
2022-10-28T02:40:09.963Z,46.3
2022-10-28T02:42:11.785Z,43.4
2022-10-28T02:44:13.564Z,45.4
2022-10-28T02:46:15.345Z,44.9
2022-10-28T02:48:20.651Z,45.7
2022-10-28T02:50:22.415Z,46.7
2022-10-28T02:52:24.235Z,44.7
2022-10-28T02:54:25.998Z,44.6
2022-10-28T02:56:27.843Z,43.9
2022-10-28T03:00:31.422Z,46
2022-10-28T03:02:36.698Z,53.4
2022-10-28T03:04:38.506Z,47.6
2022-10-28T03:06:40.289Z,48.9
2022-10-28T03:08:42.079Z,46
2022-10-28T03:10:43.877Z,44
2022-10-28T03:12:45.664Z,42.2
2022-10-28T03:14:47.457Z,44.9
2022-10-28T03:16:52.741Z,45
2022-10-28T03:18:54.553Z,47
2022-10-28T03:20:58.894Z,44.9
2022-10-28T03:22:58.132Z,47.3
2022-10-28T03:27:01.719Z,43.7
2022-10-28T03:29:03.516Z,44
2022-10-28T03:31:08.804Z,46.8
2022-10-28T03:33:10.615Z,44.2
2022-10-28T03:35:12.412Z,41.4
2022-10-28T03:36:15.036Z,44.9
2022-10-28T03:38:16.863Z,42.6
2022-10-28T03:40:18.651Z,44.4
2022-10-28T03:42:20.443Z,46.9
2022-10-28T03:44:25.737Z,42.6
2022-10-28T03:46:29.112Z,40.7
2022-10-28T03:48:29.352Z,42.2
2022-10-28T03:50:31.140Z,41.2
2022-10-28T03:52:32.928Z,42.1
2022-10-28T03:54:34.756Z,42.5
2022-10-28T03:56:36.554Z,40.8
2022-10-28T03:58:41.932Z,41.3
2022-10-28T04:00:43.667Z,40.2
2022-10-28T04:02:45.446Z,41.6
2022-10-28T04:04:47.243Z,38.6
2022-10-28T04:06:49.038Z,39.6
2022-10-28T04:08:50.835Z,38
2022-10-28T04:10:52.646Z,36.7
2022-10-28T04:12:57.926Z,37.1
2022-10-28T04:14:59.779Z,35.8
2022-10-28T04:21:05.107Z,35.3
2022-10-28T04:27:13.923Z,37.7
2022-10-28T04:29:15.726Z,39.5
2022-10-28T04:31:17.501Z,37
2022-10-28T04:33:35.097Z,39.7
2022-10-28T04:35:36.895Z,39.4
2022-10-28T04:37:38.692Z,38.2
2022-10-28T04:39:43.957Z,38.9
2022-10-28T04:41:45.729Z,41
2022-10-28T04:43:47.527Z,33.9
2022-10-28T04:45:49.340Z,34
2022-10-28T04:47:51.120Z,32.7
2022-10-28T04:49:52.921Z,34.7
2022-10-28T04:51:54.705Z,34.6
2022-10-28T04:54:00.015Z,32.7
2022-10-28T04:56:01.789Z,32.5
2022-10-28T04:58:03.583Z,32.2
2022-10-28T05:00:05.394Z,30.2
2022-10-28T05:02:07.263Z,28.3
2022-10-28T05:04:08.968Z,26
2022-10-28T05:06:10.780Z,28.6
2022-10-28T05:08:16.070Z,30
2022-10-28T05:10:17.854Z,29.5
2022-10-28T05:14:21.465Z,30.1
2022-10-28T05:16:23.260Z,30.8
2022-10-28T05:18:25.056Z,26.7
2022-10-28T05:20:26.839Z,27.1
2022-10-28T05:22:32.144Z,26.9
2022-10-28T05:26:35.724Z,25.5
2022-10-28T05:27:38.354Z,29.5
2022-10-28T05:29:40.157Z,28.1
2022-10-28T05:37:50.832Z,27.5
2022-10-28T05:39:52.643Z,25.1
2022-10-28T05:41:54.439Z,28.8
2022-10-28T05:43:56.246Z,28.3
2022-10-28T05:50:05.131Z,26.8
2022-10-28T05:52:06.924Z,27.4
2022-10-28T05:54:08.708Z,27.2
2022-10-28T05:56:10.517Z,31.3
2022-10-28T05:58:12.314Z,31.2
2022-10-28T06:00:14.102Z,28.6
2022-10-28T06:04:21.336Z,30.1
2022-10-28T06:06:22.987Z,29.4
2022-10-28T06:08:24.788Z,27.1
2022-10-28T06:10:26.599Z,29
2022-10-28T06:12:26.882Z,27.1
2022-10-28T06:14:28.723Z,26.3
2022-10-28T06:16:30.440Z,26.5
2022-10-28T06:18:35.714Z,28.8
2022-10-28T06:20:37.497Z,29.1
2022-10-28T06:22:39.282Z,28.2
2022-10-28T06:31:54.226Z,26.2
2022-10-28T06:33:55.946Z,28
2022-10-28T06:35:57.750Z,28.2
2022-10-28T06:37:59.536Z,24.8
2022-10-28T06:40:01.364Z,26.7
2022-10-28T06:42:03.134Z,28.6
2022-10-28T06:44:04.933Z,30.2
2022-10-28T06:46:10.220Z,29.2
2022-10-28T06:48:13.526Z,28.1
2022-10-28T06:50:15.318Z,37.3
2022-10-28T06:52:17.133Z,30.6
2022-10-28T06:54:18.911Z,29.5
2022-10-28T06:56:20.725Z,30.8
2022-10-28T06:58:22.498Z,28.1
2022-10-28T07:00:28.025Z,29.6
2022-10-28T07:02:29.709Z,29.4
2022-10-28T07:04:31.402Z,29.2
2022-10-28T07:10:36.764Z,29.1
2022-10-28T07:12:38.552Z,28
2022-10-28T07:14:43.850Z,26.3
2022-10-28T07:16:45.654Z,23.9
2022-10-28T07:18:47.461Z,27.4
2022-10-28T07:21:51.899Z,25.8
2022-10-28T07:23:53.726Z,30.2
2022-10-28T07:25:55.510Z,28
2022-10-28T07:28:00.854Z,30.9
2022-10-28T07:34:06.212Z,29.3
2022-10-28T07:36:08.018Z,27.7
2022-10-28T07:38:10.013Z,26.7
2022-10-28T07:40:11.813Z,27.6
2022-10-28T07:42:17.068Z,25.3
2022-10-28T07:44:18.867Z,24
2022-10-28T07:52:26.053Z,22.7
2022-10-28T07:54:27.827Z,23.8
2022-10-28T08:00:36.761Z,23.8
2022-10-28T08:02:38.508Z,24
2022-10-28T08:12:50.953Z,50.7
2022-10-28T08:14:52.737Z,48.1
2022-10-28T08:17:16.767Z,52.8
2022-10-28T08:19:18.586Z,43.2
2022-10-28T08:21:20.381Z,25.3
2022-10-28T08:23:25.660Z,32
2022-10-28T08:25:27.468Z,25.4
2022-10-28T08:29:31.045Z,26.9
2022-10-28T08:31:32.862Z,23.5
2022-10-28T08:33:34.647Z,19.9
2022-10-28T08:35:36.460Z,20.1
2022-10-28T08:37:41.741Z,21.9
2022-10-28T08:39:43.533Z,21.1
2022-10-28T08:41:45.364Z,20.6
2022-10-28T08:43:57.247Z,20.8
2022-10-28T08:45:48.945Z,20.6
2022-10-28T08:47:50.939Z,20.5
2022-10-28T08:51:57.902Z,21.1
2022-10-28T08:53:59.705Z,17.6
2022-10-28T09:02:06.961Z,17.4
2022-10-28T09:04:08.771Z,17.8
2022-10-28T09:08:15.900Z,18.1
2022-10-28T09:10:17.699Z,18.4
2022-10-28T09:11:24.786Z,20.1
2022-10-28T09:13:22.160Z,19.3
2022-10-28T09:15:23.986Z,15.2
2022-10-28T09:17:25.802Z,16.8
2022-10-28T09:19:31.092Z,17.5
2022-10-28T09:21:32.924Z,15.7
2022-10-28T09:25:36.543Z,15.2
2022-10-28T09:27:38.360Z,14.5
2022-10-28T09:29:43.294Z,13.5
2022-10-28T09:31:41.969Z,15.5
2022-10-28T09:33:47.279Z,11.6
2022-10-28T09:35:49.279Z,11
2022-10-28T09:37:50.914Z,10.8
2022-10-28T09:39:52.709Z,8.9
2022-10-28T09:43:57.328Z,9.1
2022-10-28T09:45:59.134Z,8.3
2022-10-28T09:48:04.422Z,5.6
2022-10-28T09:50:06.227Z,5.2
2022-10-28T09:52:08.036Z,6.7
2022-10-28T09:56:11.647Z,5.5
2022-10-28T10:04:22.402Z,3.9
2022-10-28T10:06:24.224Z,3.9
2022-10-28T10:07:26.871Z,3.4
2022-10-28T10:09:28.670Z,8.5
2022-10-28T10:11:30.465Z,3.1
2022-10-28T10:13:32.273Z,3.4
2022-10-28T10:17:39.377Z,2.9
2022-10-28T10:19:41.169Z,3.8
2022-10-28T10:21:42.974Z,2.9
2022-10-28T10:23:44.797Z,3.6
2022-10-28T10:27:48.409Z,3.1
2022-10-28T10:29:53.708Z,3.1
2022-10-28T10:31:55.496Z,2.8
2022-10-28T10:33:57.304Z,3.5
2022-10-28T10:36:00.166Z,3
2022-10-28T10:38:00.927Z,3.3
2022-10-28T10:40:02.712Z,2.9
2022-10-28T10:42:04.479Z,3.4
2022-10-28T10:44:09.787Z,5.4
2022-10-28T10:46:11.593Z,3.3
2022-10-28T10:48:13.381Z,3.2
2022-10-28T10:50:15.191Z,4.4
2022-10-28T10:52:16.989Z,2.7
2022-10-28T10:54:18.776Z,4.1
2022-10-28T10:56:20.578Z,2.8
2022-10-28T10:58:25.869Z,3.2
2022-10-28T11:00:27.641Z,2.6
2022-10-28T11:02:29.579Z,2.7
2022-10-28T11:03:32.084Z,3.5
2022-10-28T11:05:38.077Z,3.1
2022-10-28T11:07:35.633Z,3.4
2022-10-28T11:09:37.482Z,3.8
2022-10-28T11:11:42.726Z,2.9
2022-10-28T11:13:46.181Z,2.8
2022-10-28T11:15:46.289Z,3.7
2022-10-28T11:17:48.063Z,3.2
2022-10-28T11:19:49.834Z,3.1
2022-10-28T11:25:58.708Z,2.5
2022-10-28T11:42:17.323Z,3.9
2022-10-28T11:44:19.131Z,3.2
2022-10-28T11:46:20.897Z,3.9
2022-10-28T11:48:22.666Z,4.1
2022-10-28T11:54:31.561Z,3.7
2022-10-28T11:56:33.314Z,2.5
2022-10-28T12:00:58.963Z,3.6
2022-10-28T12:07:07.783Z,2.9
2022-10-28T12:09:09.573Z,2.9
2022-10-28T12:11:11.352Z,2.5
2022-10-28T12:23:27.264Z,2.9
2022-10-28T12:25:28.995Z,3.1
2022-10-28T12:27:30.776Z,3.1
2022-10-28T12:29:32.576Z,3.8
2022-10-28T12:31:34.333Z,5.3
2022-10-28T12:33:36.159Z,3
2022-10-28T12:35:41.436Z,2.6
2022-10-28T12:37:46.157Z,3.7
2022-10-28T12:39:44.996Z,3.8
2022-10-28T12:41:46.785Z,5.2
2022-10-28T12:43:48.569Z,3.3
2022-10-28T12:45:50.381Z,3.5
2022-10-28T12:47:52.153Z,3.2
2022-10-28T12:49:57.448Z,2.6
2022-10-28T12:51:59.218Z,4
2022-10-28T12:54:01.024Z,2.9
2022-10-28T12:57:05.444Z,3.1
2022-10-28T12:59:07.236Z,2.8
2022-10-28T13:01:09.206Z,2.7
2022-10-28T13:03:14.289Z,2.9
2022-10-28T13:05:16.069Z,2.9
2022-10-28T13:07:17.870Z,4.7
2022-10-28T13:09:19.645Z,3.9
2022-10-28T13:11:21.453Z,3.5
2022-10-28T13:13:23.314Z,3.4
2022-10-28T13:17:30.286Z,2.8
2022-10-28T13:19:32.084Z,3.6
2022-10-28T13:21:33.873Z,4.2
2022-10-28T13:23:35.678Z,2.6
2022-10-28T13:25:37.466Z,3.1
2022-10-28T13:27:39.295Z,2.4
2022-10-28T13:33:48.104Z,2.6
2022-10-28T13:35:49.972Z,2.8
2022-10-28T13:37:51.953Z,2.9
2022-10-28T13:39:53.502Z,3.2
2022-10-28T13:41:55.381Z,5.5
2022-10-28T13:43:57.066Z,2.8
2022-10-28T13:46:02.361Z,2.2
2022-10-28T13:48:04.161Z,3.1
2022-10-28T13:50:05.948Z,2.6
2022-10-28T13:51:08.569Z,4
2022-10-28T13:53:10.370Z,3.7
2022-10-28T13:59:19.288Z,3.4
2022-10-28T14:01:21.284Z,2.7
2022-10-28T14:03:23.046Z,2.9
2022-10-28T14:05:24.659Z,4.9
2022-10-28T14:07:26.629Z,2.9
2022-10-28T14:09:28.270Z,3.1
2022-10-28T14:11:30.076Z,3.4
2022-10-28T14:13:35.368Z,3.3
2022-10-28T14:15:37.175Z,2.4
2022-10-28T14:17:38.981Z,3.3
2022-10-28T14:19:40.774Z,3.4
2022-10-28T14:21:42.655Z,2.9
2022-10-28T14:23:44.386Z,2.8
2022-10-28T14:27:51.695Z,3.9
2022-10-28T14:29:53.274Z,2.7
2022-10-28T14:35:58.790Z,3.6
2022-10-28T14:42:07.634Z,3.5
2022-10-28T14:44:09.441Z,3.9
2022-10-28T14:47:13.927Z,3.1
2022-10-28T14:49:15.676Z,3.7
2022-10-28T14:51:17.487Z,3.2
2022-10-28T14:53:19.264Z,3.2
2022-10-28T14:55:24.565Z,3.3
2022-10-28T14:59:28.194Z,3.8
2022-10-28T15:03:31.822Z,2.5
2022-10-28T15:05:33.624Z,4
2022-10-28T15:09:40.762Z,3.5
2022-10-28T15:11:42.550Z,3
2022-10-28T15:13:44.361Z,3.8
2022-10-28T15:15:46.162Z,3.6
2022-10-28T15:17:48.055Z,2.8
2022-10-28T15:19:49.776Z,3.1
2022-10-28T15:21:55.590Z,3.3
2022-10-28T15:23:56.914Z,3.2
2022-10-28T15:25:58.710Z,3.7
2022-10-28T15:28:00.533Z,2.5
2022-10-28T15:30:02.371Z,3.5
2022-10-28T15:32:04.153Z,3.6
2022-10-28T15:34:05.967Z,3.4
2022-10-28T15:36:07.781Z,4.3
2022-10-28T15:38:13.100Z,4.3
2022-10-28T15:40:14.881Z,3.3
2022-10-28T15:44:34.012Z,4
2022-10-28T15:46:35.820Z,3.7
2022-10-28T15:48:37.639Z,3.3
2022-10-28T15:50:42.977Z,3
2022-10-28T15:52:44.752Z,5
2022-10-28T15:54:46.581Z,3.7
2022-10-28T15:56:48.387Z,4
2022-10-28T15:58:50.213Z,4.7
2022-10-28T16:00:52.050Z,3.5
2022-10-28T16:02:54.287Z,3.2
2022-10-28T16:04:59.159Z,3.7
2022-10-28T16:07:00.981Z,5.6
2022-10-28T16:09:02.810Z,4.2
2022-10-28T16:15:08.237Z,3.3
2022-10-28T16:17:10.092Z,6.6
2022-10-28T16:19:15.393Z,4.8
2022-10-28T16:21:17.165Z,3.6
2022-10-28T16:23:18.965Z,5.2
2022-10-28T16:25:20.821Z,6.3
2022-10-28T16:27:22.639Z,7.3
2022-10-28T16:29:24.402Z,3.8
2022-10-28T16:31:26.239Z,5.3
2022-10-28T16:35:33.272Z,5.1
2022-10-28T16:37:34.917Z,4.3
2022-10-28T16:38:37.551Z,3.5
2022-10-28T16:40:51.413Z,4.2
2022-10-28T16:42:41.182Z,3
2022-10-28T16:44:43.014Z,3.5
2022-10-28T16:46:48.324Z,3.7
2022-10-28T16:48:50.137Z,3.6
2022-10-28T16:50:51.927Z,4
2022-10-28T16:52:53.736Z,3.8
2022-10-28T16:58:59.180Z,3.8
2022-10-28T17:03:06.289Z,3.2
2022-10-28T17:05:08.106Z,5.5
2022-10-28T17:07:09.928Z,5.5
2022-10-28T17:09:11.747Z,6.6
2022-10-28T17:11:13.566Z,10.5
2022-10-28T17:13:15.347Z,14.9
2022-10-28T17:15:20.651Z,9.9
2022-10-28T17:17:22.474Z,20.2
2022-10-28T17:19:24.265Z,6.8
2022-10-28T17:21:26.092Z,3.9
2022-10-28T17:23:27.929Z,4.8
2022-10-28T17:25:29.818Z,5.6
2022-10-28T17:27:31.532Z,5.4
2022-10-28T17:29:36.898Z,4.2
2022-10-28T17:31:38.697Z,4.2
2022-10-28T17:33:40.487Z,3.6
2022-10-28T17:34:43.135Z,4.4
2022-10-28T17:36:44.923Z,6.6
2022-10-28T17:38:46.743Z,4.4
2022-10-28T17:40:48.557Z,4.5
2022-10-28T17:42:54.258Z,5.7
2022-10-28T17:44:55.679Z,5.1
2022-10-28T17:46:57.473Z,4.3
2022-10-28T17:48:59.301Z,7.4
2022-10-28T17:51:01.113Z,5.7
2022-10-28T17:57:10.015Z,4.8
2022-10-28T18:05:17.268Z,4.4
2022-10-28T18:07:19.081Z,7.9
2022-10-28T18:09:20.893Z,5.3
2022-10-28T18:13:28.027Z,4.4
2022-10-28T18:15:31.479Z,4.7
2022-10-28T18:17:33.244Z,5.6
2022-10-28T18:19:35.072Z,5.1
2022-10-28T18:21:36.856Z,8.6
2022-10-28T18:23:38.677Z,5.6
2022-10-28T18:25:43.979Z,5.1
2022-10-28T18:27:45.783Z,7.4
2022-10-28T18:29:47.599Z,4.7
2022-10-28T18:30:50.280Z,4.5
2022-10-28T18:32:52.282Z,7.3
2022-10-28T18:34:53.969Z,4.6
2022-10-28T18:36:55.709Z,4.8
2022-10-28T18:41:02.794Z,5.5
2022-10-28T18:43:04.606Z,5.4
2022-10-28T18:45:06.438Z,5.6
2022-10-28T18:47:08.299Z,5.2
2022-10-28T18:49:10.066Z,5.9
2022-10-28T18:51:11.923Z,4.7
2022-10-28T18:53:17.185Z,6
2022-10-28T18:55:19.013Z,4.7
2022-10-28T18:57:20.803Z,6.3
2022-10-28T18:59:22.637Z,6
2022-10-28T19:01:24.621Z,6
2022-10-28T19:03:26.287Z,6.5
2022-10-28T19:05:28.113Z,6.8
2022-10-28T19:17:42.444Z,12.7
2022-10-28T19:19:44.277Z,6.9
2022-10-28T19:21:49.546Z,8.7
2022-10-28T19:23:51.380Z,7.8
2022-10-28T19:25:53.180Z,7
2022-10-28T19:28:17.242Z,9.1
2022-10-28T19:30:19.070Z,7.5
2022-10-28T19:32:20.891Z,7.9
2022-10-28T19:34:26.174Z,8
2022-10-28T19:36:27.972Z,9.3
2022-10-28T19:38:29.799Z,11.2
2022-10-28T19:40:31.575Z,8.8
2022-10-28T19:42:33.396Z,10.7
2022-10-28T19:44:35.212Z,9.1
2022-10-28T19:46:37.064Z,8.5
2022-10-28T19:48:42.333Z,8.3
2022-10-28T19:50:44.187Z,8
2022-10-28T19:52:45.940Z,8.6
2022-10-28T19:54:47.734Z,9.7
2022-10-28T19:56:49.566Z,10.4
2022-10-28T19:58:51.400Z,8.5
2022-10-28T20:00:53.210Z,9.3
2022-10-28T20:02:58.507Z,9.3
2022-10-28T20:05:00.298Z,9.5
2022-10-28T20:07:02.124Z,10.2
2022-10-28T20:09:03.920Z,9.3
2022-10-28T20:11:05.724Z,9.5
2022-10-28T20:13:07.606Z,9.2
2022-10-28T20:15:09.341Z,9.2
2022-10-28T20:17:14.627Z,9.2
2022-10-28T20:19:16.418Z,7.2
2022-10-28T20:21:18.226Z,6.5
2022-10-28T20:22:20.875Z,8.7
2022-10-28T20:24:22.671Z,8.4
2022-10-28T20:26:24.493Z,9.9
2022-10-28T20:30:31.584Z,8.6
2022-10-28T20:32:33.358Z,9.3
2022-10-28T20:38:38.799Z,6.9
2022-10-28T20:40:40.594Z,6.5
2022-10-28T20:42:42.399Z,7.4
2022-10-28T20:46:49.507Z,6.4
2022-10-28T20:48:51.318Z,6
2022-10-28T20:50:53.101Z,6.8
2022-10-28T20:52:55.288Z,5.5
2022-10-28T20:54:56.740Z,7.3
2022-10-28T20:56:58.506Z,5.9
2022-10-28T20:59:03.781Z,6.5
2022-10-28T21:03:07.439Z,6.2
2022-10-28T21:05:09.192Z,5.9
2022-10-28T21:07:10.970Z,6.8
2022-10-28T21:09:12.772Z,6.8
2022-10-28T21:11:14.583Z,7.6
2022-10-28T21:13:19.851Z,7.9
2022-10-28T21:15:21.628Z,5.7
2022-10-28T21:17:23.435Z,6.3
2022-10-28T21:18:26.076Z,6.8
2022-10-28T21:20:27.872Z,5.7
2022-10-28T21:22:29.694Z,6.2
2022-10-28T21:24:31.550Z,6.3
2022-10-28T21:26:36.766Z,6.3
2022-10-28T21:28:38.562Z,7.4
2022-10-28T21:30:40.370Z,7.5
2022-10-28T21:32:42.170Z,5.9
2022-10-28T21:34:43.994Z,6.5
2022-10-28T21:38:47.560Z,7.5
2022-10-28T21:40:52.863Z,6.5
2022-10-28T21:42:54.626Z,7
2022-10-28T21:44:56.509Z,6.6
2022-10-28T21:46:58.230Z,6.4
2022-10-28T21:49:00.015Z,6.5
2022-10-28T21:51:01.830Z,6.7
2022-10-28T21:55:20.113Z,8.3
2022-10-28T21:57:10.672Z,6.5
2022-10-28T21:59:12.502Z,8.3
2022-10-28T22:01:14.452Z,7.6
2022-10-28T22:03:16.127Z,7.7
2022-10-28T22:05:17.894Z,7.2
2022-10-28T22:07:19.680Z,7.7
2022-10-28T22:14:31.168Z,6.4
2022-10-28T22:16:32.981Z,6.7
2022-10-28T22:18:34.751Z,7.3
2022-10-28T22:20:36.521Z,7.4
2022-10-28T22:22:41.798Z,7.2
2022-10-28T22:24:43.618Z,9.3
2022-10-28T22:26:45.421Z,6.9
2022-10-28T22:28:47.235Z,6.9
2022-10-28T22:30:49.019Z,8.2
2022-10-28T22:32:50.838Z,7.7
2022-10-28T22:34:52.632Z,8.3
2022-10-28T22:36:57.924Z,6.8
2022-10-28T22:38:59.722Z,8.6
2022-10-28T22:41:01.518Z,8.3
2022-10-28T22:43:03.331Z,7.8
2022-10-28T22:45:05.140Z,8.2
2022-10-28T22:47:06.947Z,10.1
2022-10-28T22:49:08.733Z,8.3
2022-10-28T22:51:14.034Z,9.8
2022-10-28T22:53:15.854Z,8.1
2022-10-28T22:55:17.621Z,9.5
2022-10-28T22:59:21.236Z,8.7
2022-10-28T23:01:23.109Z,8.5
2022-10-28T23:03:24.807Z,8.9
2022-10-28T23:05:30.052Z,10.1
2022-10-28T23:07:31.832Z,10.3
2022-10-28T23:09:33.633Z,10.9
2022-10-28T23:13:59.241Z,9.1
2022-10-28T23:16:01.078Z,10.3
2022-10-28T23:20:08.139Z,9.5
2022-10-28T23:24:11.733Z,12.7
2022-10-28T23:26:13.546Z,11.2
2022-10-28T23:28:15.328Z,10.2
2022-10-28T23:30:17.147Z,9.4
2022-10-28T23:32:22.401Z,11.7
2022-10-28T23:34:24.210Z,12.1
2022-10-28T23:36:26.010Z,12.2
2022-10-28T23:38:27.810Z,11.5
2022-10-28T23:40:29.596Z,10.7
2022-10-28T23:42:31.382Z,11.3
2022-10-28T23:44:33.181Z,12.5
2022-10-28T23:46:38.591Z,12.9
2022-10-28T23:48:40.257Z,11.8
2022-10-28T23:50:42.064Z,13
2022-10-28T23:52:43.831Z,11.8
2022-10-28T23:54:45.612Z,12.7
2022-10-28T23:58:49.180Z,13.4
